sensor_id;sensor_type;location;lat;lon;timestamp;pressure;altitude;pressure_sealevel;temperature;humidity
15914;BME280;8055;51.930;8.840;2023-04-28T00:01:59;76337.91;;;-145.72;61.28
15914;BME280;8055;51.930;8.840;2023-04-28T00:04:25;76331.69;;;-145.72;60.93
15914;BME280;8055;51.930;8.840;2023-04-28T00:06:50;76329.63;;;-145.72;61.09
15914;BME280;8055;51.930;8.840;2023-04-28T00:09:16;76327.56;;;-145.72;60.48
15914;BME280;8055;51.930;8.840;2023-04-28T00:11:43;76323.41;;;-145.72;61.68
15914;BME280;8055;51.930;8.840;2023-04-28T00:14:09;76317.22;;;-145.72;61.67
15914;BME280;8055;51.930;8.840;2023-04-28T00:16:34;76317.22;;;-145.72;62.09
15914;BME280;8055;51.930;8.840;2023-04-28T00:19:00;76317.22;;;-145.72;61.79
15914;BME280;8055;51.930;8.840;2023-04-28T00:21:25;76308.94;;;-145.72;61.31
15914;BME280;8055;51.930;8.840;2023-04-28T00:23:52;76306.84;;;-145.72;62.81
15914;BME280;8055;51.930;8.840;2023-04-28T00:26:18;76308.94;;;-145.72;61.76
15914;BME280;8055;51.930;8.840;2023-04-28T00:28:43;76296.50;;;-145.72;61.64
15914;BME280;8055;51.930;8.840;2023-04-28T00:31:10;76292.38;;;-145.72;61.50
15914;BME280;8055;51.930;8.840;2023-04-28T00:33:39;76288.22;;;-145.72;62.26
15914;BME280;8055;51.930;8.840;2023-04-28T00:36:05;76286.16;;;-145.72;61.78
15914;BME280;8055;51.930;8.840;2023-04-28T00:38:31;76288.22;;;-145.72;63.27
15914;BME280;8055;51.930;8.840;2023-04-28T00:40:56;76279.97;;;-145.72;62.23
15914;BME280;8055;51.930;8.840;2023-04-28T00:43:22;76269.59;;;-145.72;62.59
15914;BME280;8055;51.930;8.840;2023-04-28T00:45:50;76284.09;;;-145.72;63.16
15914;BME280;8055;51.930;8.840;2023-04-28T00:48:16;76279.97;;;-145.72;63.12
15914;BME280;8055;51.930;8.840;2023-04-28T00:50:42;76265.47;;;-145.72;63.24
15914;BME280;8055;51.930;8.840;2023-04-28T00:53:09;76267.53;;;-145.72;63.40
15914;BME280;8055;51.930;8.840;2023-04-28T00:55:36;76263.41;;;-145.72;63.52
15914;BME280;8055;51.930;8.840;2023-04-28T00:58:02;76253.06;;;-145.72;63.70
15914;BME280;8055;51.930;8.840;2023-04-28T01:00:27;76261.34;;;-145.72;64.39
15914;BME280;8055;51.930;8.840;2023-04-28T01:02:54;76263.41;;;-145.72;64.27
15914;BME280;8055;51.930;8.840;2023-04-28T01:05:19;76250.97;;;-145.72;63.85
15914;BME280;8055;51.930;8.840;2023-04-28T01:07:44;76255.13;;;-145.72;63.67
15914;BME280;8055;51.930;8.840;2023-04-28T01:10:10;76253.06;;;-145.72;64.16
15914;BME280;8055;51.930;8.840;2023-04-28T01:12:35;76248.91;;;-145.72;64.33
15914;BME280;8055;51.930;8.840;2023-04-28T01:15:01;76259.25;;;-145.72;65.35
15914;BME280;8055;51.930;8.840;2023-04-28T01:17:27;76267.53;;;-145.72;64.86
15914;BME280;8055;51.930;8.840;2023-04-28T01:19:53;76255.13;;;-145.72;65.26
15914;BME280;8055;51.930;8.840;2023-04-28T01:22:18;76263.41;;;-145.72;65.71
15914;BME280;8055;51.930;8.840;2023-04-28T01:24:43;76250.97;;;-145.72;65.69
15914;BME280;8055;51.930;8.840;2023-04-28T01:27:09;76271.69;;;-145.72;65.15
15914;BME280;8055;51.930;8.840;2023-04-28T01:29:34;76255.13;;;-145.72;65.08
15914;BME280;8055;51.930;8.840;2023-04-28T01:32:00;76257.19;;;-145.72;65.98
15914;BME280;8055;51.930;8.840;2023-04-28T01:34:25;76261.34;;;-145.72;65.86
15914;BME280;8055;51.930;8.840;2023-04-28T01:36:50;76259.25;;;-145.72;66.41
15914;BME280;8055;51.930;8.840;2023-04-28T01:39:16;76253.06;;;-145.72;66.43
15914;BME280;8055;51.930;8.840;2023-04-28T01:41:41;76250.97;;;-145.72;66.25
15914;BME280;8055;51.930;8.840;2023-04-28T01:44:07;76248.91;;;-145.72;67.06
15914;BME280;8055;51.930;8.840;2023-04-28T01:46:33;76246.84;;;-145.72;66.72
15914;BME280;8055;51.930;8.840;2023-04-28T01:48:59;76246.84;;;-145.72;67.67
15914;BME280;8055;51.930;8.840;2023-04-28T01:51:24;76242.72;;;-145.72;67.31
15914;BME280;8055;51.930;8.840;2023-04-28T01:53:51;76246.84;;;-145.72;67.82
15914;BME280;8055;51.930;8.840;2023-04-28T01:56:16;76242.72;;;-145.72;67.15
15914;BME280;8055;51.930;8.840;2023-04-28T01:58:42;76250.97;;;-145.72;68.17
15914;BME280;8055;51.930;8.840;2023-04-28T02:01:07;76242.72;;;-145.72;67.54
15914;BME280;8055;51.930;8.840;2023-04-28T02:03:32;76236.50;;;-145.72;67.57
15914;BME280;8055;51.930;8.840;2023-04-28T02:05:58;76238.56;;;-145.72;67.24
15914;BME280;8055;51.930;8.840;2023-04-28T02:08:23;76228.22;;;-145.72;67.63
15914;BME280;8055;51.930;8.840;2023-04-28T02:10:48;76228.22;;;-145.72;67.69
15914;BME280;8055;51.930;8.840;2023-04-28T02:13:14;76228.22;;;-145.72;67.40
15914;BME280;8055;51.930;8.840;2023-04-28T02:15:41;76224.09;;;-145.72;68.22
15914;BME280;8055;51.930;8.840;2023-04-28T02:18:07;76228.22;;;-145.72;68.28
15914;BME280;8055;51.930;8.840;2023-04-28T02:20:32;76232.34;;;-145.72;68.55
15914;BME280;8055;51.930;8.840;2023-04-28T02:22:57;76228.22;;;-145.72;67.70
15914;BME280;8055;51.930;8.840;2023-04-28T02:25:23;76226.16;;;-145.72;67.66
15914;BME280;8055;51.930;8.840;2023-04-28T02:27:48;76219.94;;;-145.72;68.05
15914;BME280;8055;51.930;8.840;2023-04-28T02:30:14;76213.72;;;-145.72;67.77
15914;BME280;8055;51.930;8.840;2023-04-28T02:32:39;76213.72;;;-145.72;68.43
15914;BME280;8055;51.930;8.840;2023-04-28T02:35:05;76209.59;;;-145.72;67.74
15914;BME280;8055;51.930;8.840;2023-04-28T02:37:30;76213.72;;;-145.72;68.73
15914;BME280;8055;51.930;8.840;2023-04-28T02:39:56;76209.59;;;-145.72;68.02
15914;BME280;8055;51.930;8.840;2023-04-28T02:42:21;76201.31;;;-145.72;68.34
15914;BME280;8055;51.930;8.840;2023-04-28T02:44:46;76205.44;;;-145.72;68.38
15914;BME280;8055;51.930;8.840;2023-04-28T02:47:12;76199.25;;;-145.72;68.44
15914;BME280;8055;51.930;8.840;2023-04-28T02:49:37;76199.25;;;-145.72;68.15
15914;BME280;8055;51.930;8.840;2023-04-28T02:52:02;76201.31;;;-145.72;68.52
15914;BME280;8055;51.930;8.840;2023-04-28T02:54:28;76195.09;;;-145.72;69.18
15914;BME280;8055;51.930;8.840;2023-04-28T02:56:54;76190.97;;;-145.72;69.15
15914;BME280;8055;51.930;8.840;2023-04-28T02:59:20;76197.19;;;-145.72;68.85
15914;BME280;8055;51.930;8.840;2023-04-28T03:01:46;76186.81;;;-145.72;69.10
15914;BME280;8055;51.930;8.840;2023-04-28T03:04:12;76180.63;;;-145.72;68.77
15914;BME280;8055;51.930;8.840;2023-04-28T03:06:38;76178.56;;;-145.72;68.77
15914;BME280;8055;51.930;8.840;2023-04-28T03:09:03;76178.56;;;-145.72;68.80
15914;BME280;8055;51.930;8.840;2023-04-28T03:11:28;76176.47;;;-145.72;68.58
15914;BME280;8055;51.930;8.840;2023-04-28T03:13:54;76174.41;;;-145.72;68.53
15914;BME280;8055;51.930;8.840;2023-04-28T03:16:19;76172.34;;;-145.72;68.38
15914;BME280;8055;51.930;8.840;2023-04-28T03:18:45;76168.19;;;-145.72;69.05
15914;BME280;8055;51.930;8.840;2023-04-28T03:21:10;76176.47;;;-145.72;69.22
15914;BME280;8055;51.930;8.840;2023-04-28T03:23:36;76174.41;;;-145.72;68.82
15914;BME280;8055;51.930;8.840;2023-04-28T03:26:02;76178.56;;;-145.72;69.55
15914;BME280;8055;51.930;8.840;2023-04-28T03:28:28;76176.47;;;-145.72;69.33
15914;BME280;8055;51.930;8.840;2023-04-28T03:30:53;76172.34;;;-145.72;69.05
15914;BME280;8055;51.930;8.840;2023-04-28T03:33:18;76174.41;;;-145.72;69.55
15914;BME280;8055;51.930;8.840;2023-04-28T03:35:44;76174.41;;;-145.72;70.42
15914;BME280;8055;51.930;8.840;2023-04-28T03:38:09;76164.06;;;-145.72;69.27
15914;BME280;8055;51.930;8.840;2023-04-28T03:40:34;76162.00;;;-145.72;70.05
15914;BME280;8055;51.930;8.840;2023-04-28T03:43:01;76168.19;;;-145.72;70.18
15914;BME280;8055;51.930;8.840;2023-04-28T03:45:26;76166.13;;;-145.72;70.50
15914;BME280;8055;51.930;8.840;2023-04-28T03:47:52;76172.34;;;-145.72;70.44
15914;BME280;8055;51.930;8.840;2023-04-28T03:50:17;76172.34;;;-145.72;69.62
15914;BME280;8055;51.930;8.840;2023-04-28T03:52:43;76174.41;;;-145.72;70.70
15914;BME280;8055;51.930;8.840;2023-04-28T03:55:08;76168.19;;;-145.72;70.43
15914;BME280;8055;51.930;8.840;2023-04-28T03:57:34;76164.06;;;-145.72;70.44
15914;BME280;8055;51.930;8.840;2023-04-28T04:00:00;76164.06;;;-145.72;70.56
15914;BME280;8055;51.930;8.840;2023-04-28T04:02:25;76164.06;;;-145.72;71.43
15914;BME280;8055;51.930;8.840;2023-04-28T04:04:50;76170.28;;;-145.72;71.00
15914;BME280;8055;51.930;8.840;2023-04-28T04:07:16;76172.34;;;-145.72;71.42
15914;BME280;8055;51.930;8.840;2023-04-28T04:09:41;76157.84;;;-145.72;71.79
15914;BME280;8055;51.930;8.840;2023-04-28T04:12:07;76168.19;;;-145.72;71.73
15914;BME280;8055;51.930;8.840;2023-04-28T04:14:32;76164.06;;;-145.72;70.87
15914;BME280;8055;51.930;8.840;2023-04-28T04:16:57;76157.84;;;-145.72;71.62
15914;BME280;8055;51.930;8.840;2023-04-28T04:19:23;76159.94;;;-145.72;71.20
15914;BME280;8055;51.930;8.840;2023-04-28T04:21:51;76164.06;;;-145.72;72.65
15914;BME280;8055;51.930;8.840;2023-04-28T04:26:48;76172.34;;;-145.72;72.22
15914;BME280;8055;51.930;8.840;2023-04-28T04:29:13;76180.63;;;-145.72;72.83
15914;BME280;8055;51.930;8.840;2023-04-28T04:31:39;76176.47;;;-145.72;71.64
15914;BME280;8055;51.930;8.840;2023-04-28T04:34:04;76168.19;;;-145.72;72.21
15914;BME280;8055;51.930;8.840;2023-04-28T04:36:30;76166.13;;;-145.72;72.32
15914;BME280;8055;51.930;8.840;2023-04-28T04:38:57;76170.28;;;-145.72;72.45
15914;BME280;8055;51.930;8.840;2023-04-28T04:41:24;76170.28;;;-145.72;72.87
15914;BME280;8055;51.930;8.840;2023-04-28T04:43:50;76164.06;;;-145.72;72.54
15914;BME280;8055;51.930;8.840;2023-04-28T04:46:16;76162.00;;;-145.72;72.53
15914;BME280;8055;51.930;8.840;2023-04-28T04:48:41;76153.72;;;-145.72;71.23
15914;BME280;8055;51.930;8.840;2023-04-28T04:51:07;76155.78;;;-145.72;72.70
15914;BME280;8055;51.930;8.840;2023-04-28T04:53:33;76153.72;;;-145.72;71.90
15914;BME280;8055;51.930;8.840;2023-04-28T04:55:58;76147.50;;;-145.72;71.68
15914;BME280;8055;51.930;8.840;2023-04-28T04:58:24;76147.50;;;-145.72;72.87
15914;BME280;8055;51.930;8.840;2023-04-28T05:00:50;76143.38;;;-145.72;75.30
15914;BME280;8055;51.930;8.840;2023-04-28T05:03:15;76143.38;;;-145.72;76.04
15914;BME280;8055;51.930;8.840;2023-04-28T05:05:40;76137.16;;;-145.72;74.78
15914;BME280;8055;51.930;8.840;2023-04-28T05:08:06;76147.50;;;-145.72;75.59
15914;BME280;8055;51.930;8.840;2023-04-28T05:10:31;76141.31;;;-145.72;75.59
15914;BME280;8055;51.930;8.840;2023-04-28T05:12:57;76135.09;;;-145.72;75.98
15914;BME280;8055;51.930;8.840;2023-04-28T05:15:22;76137.16;;;-145.72;75.91
15914;BME280;8055;51.930;8.840;2023-04-28T05:17:47;76130.94;;;-145.72;75.01
15914;BME280;8055;51.930;8.840;2023-04-28T05:20:13;76122.69;;;-145.72;75.18
15914;BME280;8055;51.930;8.840;2023-04-28T05:22:39;76110.25;;;-145.72;74.19
15914;BME280;8055;51.930;8.840;2023-04-28T05:25:05;76099.91;;;-145.72;73.85
15914;BME280;8055;51.930;8.840;2023-04-28T05:27:31;76093.72;;;-145.72;73.82
15914;BME280;8055;51.930;8.840;2023-04-28T05:29:56;76085.44;;;-145.72;73.41
15914;BME280;8055;51.930;8.840;2023-04-28T05:32:21;76079.22;;;-145.72;74.30
15914;BME280;8055;51.930;8.840;2023-04-28T05:34:47;76068.88;;;-145.72;74.83
15914;BME280;8055;51.930;8.840;2023-04-28T05:37:12;76068.88;;;-145.72;72.98
15914;BME280;8055;51.930;8.840;2023-04-28T05:39:37;76068.88;;;-145.72;73.56
15914;BME280;8055;51.930;8.840;2023-04-28T05:42:03;76073.00;;;-145.72;73.89
15914;BME280;8055;51.930;8.840;2023-04-28T05:44:29;76060.59;;;-145.72;73.71
15914;BME280;8055;51.930;8.840;2023-04-28T05:46:55;76056.47;;;-145.72;73.17
15914;BME280;8055;51.930;8.840;2023-04-28T05:49:20;76054.38;;;-145.72;72.82
15914;BME280;8055;51.930;8.840;2023-04-28T05:51:46;76052.31;;;-145.72;73.91
15914;BME280;8055;51.930;8.840;2023-04-28T05:54:11;76050.25;;;-145.72;74.08
15914;BME280;8055;51.930;8.840;2023-04-28T05:56:36;76044.03;;;-145.72;72.37
15914;BME280;8055;51.930;8.840;2023-04-28T05:59:02;76039.91;;;-145.72;74.35
15914;BME280;8055;51.930;8.840;2023-04-28T06:01:29;76037.84;;;-145.72;73.45
15914;BME280;8055;51.930;8.840;2023-04-28T06:03:55;76029.56;;;-145.72;73.35
15914;BME280;8055;51.930;8.840;2023-04-28T06:06:22;76025.41;;;-145.72;74.42
15914;BME280;8055;51.930;8.840;2023-04-28T06:08:48;76023.34;;;-145.72;72.82
15914;BME280;8055;51.930;8.840;2023-04-28T06:11:13;76023.34;;;-145.72;72.50
15914;BME280;8055;51.930;8.840;2023-04-28T06:13:39;76029.56;;;-145.72;73.43
15914;BME280;8055;51.930;8.840;2023-04-28T06:16:05;76029.56;;;-145.72;73.47
15914;BME280;8055;51.930;8.840;2023-04-28T06:18:30;76029.56;;;-145.72;73.84
15914;BME280;8055;51.930;8.840;2023-04-28T06:20:56;76029.56;;;-145.72;74.12
15914;BME280;8055;51.930;8.840;2023-04-28T06:23:22;76027.47;;;-145.72;75.06
15914;BME280;8055;51.930;8.840;2023-04-28T06:25:47;76029.56;;;-145.72;75.30
15914;BME280;8055;51.930;8.840;2023-04-28T06:28:13;76021.28;;;-145.72;75.90
15914;BME280;8055;51.930;8.840;2023-04-28T06:30:39;76027.47;;;-145.72;75.54
15914;BME280;8055;51.930;8.840;2023-04-28T06:33:05;76021.28;;;-145.72;74.67
15914;BME280;8055;51.930;8.840;2023-04-28T06:35:31;76019.22;;;-145.72;75.38
15914;BME280;8055;51.930;8.840;2023-04-28T06:37:59;76015.06;;;-145.72;75.54
15914;BME280;8055;51.930;8.840;2023-04-28T06:40:25;76019.22;;;-145.72;75.81
15914;BME280;8055;51.930;8.840;2023-04-28T06:42:51;76008.84;;;-145.72;75.63
15914;BME280;8055;51.930;8.840;2023-04-28T06:45:16;75998.50;;;-145.72;77.62
15914;BME280;8055;51.930;8.840;2023-04-28T06:47:42;75996.44;;;-145.72;78.37
15914;BME280;8055;51.930;8.840;2023-04-28T06:50:08;75998.50;;;-145.72;77.36
15914;BME280;8055;51.930;8.840;2023-04-28T06:52:33;75988.16;;;-145.72;78.05
15914;BME280;8055;51.930;8.840;2023-04-28T06:54:59;75981.97;;;-145.72;77.68
15914;BME280;8055;51.930;8.840;2023-04-28T06:57:25;75971.63;;;-145.72;76.94
15914;BME280;8055;51.930;8.840;2023-04-28T06:59:50;75961.25;;;-145.72;77.83
15914;BME280;8055;51.930;8.840;2023-04-28T07:02:15;75940.56;;;-145.72;77.84
15914;BME280;8055;51.930;8.840;2023-04-28T07:04:41;75934.38;;;-145.72;77.99
15914;BME280;8055;51.930;8.840;2023-04-28T07:07:06;75926.09;;;-145.72;76.75
15914;BME280;8055;51.930;8.840;2023-04-28T07:09:33;75921.94;;;-145.72;76.92
15914;BME280;8055;51.930;8.840;2023-04-28T07:11:59;75915.75;;;-145.72;77.46
15914;BME280;8055;51.930;8.840;2023-04-28T07:14:24;75903.31;;;-145.72;77.14
15914;BME280;8055;51.930;8.840;2023-04-28T07:16:49;75903.31;;;-145.72;76.36
15914;BME280;8055;51.930;8.840;2023-04-28T07:19:15;75899.19;;;-145.72;77.98
15914;BME280;8055;51.930;8.840;2023-04-28T07:21:40;75901.25;;;-145.72;77.61
15914;BME280;8055;51.930;8.840;2023-04-28T07:24:06;75888.84;;;-145.72;77.32
15914;BME280;8055;51.930;8.840;2023-04-28T07:26:32;75874.34;;;-145.72;77.69
15914;BME280;8055;51.930;8.840;2023-04-28T07:28:58;75870.22;;;-145.72;78.55
15914;BME280;8055;51.930;8.840;2023-04-28T07:31:23;75859.88;;;-145.72;78.15
15914;BME280;8055;51.930;8.840;2023-04-28T07:33:49;75859.88;;;-145.72;78.34
15914;BME280;8055;51.930;8.840;2023-04-28T07:36:14;75853.66;;;-145.72;78.74
15914;BME280;8055;51.930;8.840;2023-04-28T07:38:40;75843.31;;;-145.72;77.48
15914;BME280;8055;51.930;8.840;2023-04-28T07:41:05;75826.75;;;-145.72;77.78
15914;BME280;8055;51.930;8.840;2023-04-28T07:43:31;75818.47;;;-145.72;77.58
15914;BME280;8055;51.930;8.840;2023-04-28T07:45:56;75804.00;;;-145.72;77.99
15914;BME280;8055;51.930;8.840;2023-04-28T07:48:22;75804.00;;;-145.72;79.50
15914;BME280;8055;51.930;8.840;2023-04-28T07:50:47;75799.88;;;-145.72;80.06
15914;BME280;8055;51.930;8.840;2023-04-28T07:53:13;75797.78;;;-145.72;79.75
15914;BME280;8055;51.930;8.840;2023-04-28T07:55:38;75787.44;;;-145.72;80.76
15914;BME280;8055;51.930;8.840;2023-04-28T07:58:06;75779.16;;;-145.72;79.44
15914;BME280;8055;51.930;8.840;2023-04-28T08:00:32;75772.97;;;-145.72;80.17
15914;BME280;8055;51.930;8.840;2023-04-28T08:02:57;75764.69;;;-145.72;81.85
15914;BME280;8055;51.930;8.840;2023-04-28T08:05:23;75766.75;;;-145.72;81.19
15914;BME280;8055;51.930;8.840;2023-04-28T08:07:48;75756.41;;;-145.72;84.73
15914;BME280;8055;51.930;8.840;2023-04-28T08:10:13;75756.41;;;-145.72;82.47
15914;BME280;8055;51.930;8.840;2023-04-28T08:12:39;75746.06;;;-145.72;81.32
15914;BME280;8055;51.930;8.840;2023-04-28T08:15:06;75741.91;;;-145.72;82.40
15914;BME280;8055;51.930;8.840;2023-04-28T08:17:31;75715.03;;;-145.72;83.91
15914;BME280;8055;51.930;8.840;2023-04-28T08:19:57;75706.75;;;-145.72;83.01
15914;BME280;8055;51.930;8.840;2023-04-28T08:22:22;75690.19;;;-145.72;83.63
15914;BME280;8055;51.930;8.840;2023-04-28T08:24:48;75673.63;;;-145.72;86.56
15914;BME280;8055;51.930;8.840;2023-04-28T08:27:13;75657.09;;;-145.72;86.83
15914;BME280;8055;51.930;8.840;2023-04-28T08:29:39;75650.88;;;-145.72;86.20
15914;BME280;8055;51.930;8.840;2023-04-28T08:32:04;75626.06;;;-145.72;84.75
15914;BME280;8055;51.930;8.840;2023-04-28T08:34:33;75603.28;;;-145.72;82.83
15914;BME280;8055;51.930;8.840;2023-04-28T08:36:59;75586.72;;;-145.72;83.57
15914;BME280;8055;51.930;8.840;2023-04-28T08:39:25;75568.13;;;-145.72;79.89
15914;BME280;8055;51.930;8.840;2023-04-28T08:41:51;75551.56;;;-145.72;81.99
15914;BME280;8055;51.930;8.840;2023-04-28T08:44:17;75551.56;;;-145.72;80.59
15914;BME280;8055;51.930;8.840;2023-04-28T08:46:44;75551.56;;;-145.72;79.85
15914;BME280;8055;51.930;8.840;2023-04-28T08:49:16;75543.28;;;-145.72;79.81
15914;BME280;8055;51.930;8.840;2023-04-28T08:51:49;75541.22;;;-145.72;78.41
15914;BME280;8055;51.930;8.840;2023-04-28T08:54:16;75541.22;;;-145.72;78.80
15914;BME280;8055;51.930;8.840;2023-04-28T08:56:41;75547.41;;;-145.72;77.51
15914;BME280;8055;51.930;8.840;2023-04-28T08:59:11;75518.44;;;-145.72;78.97
15914;BME280;8055;51.930;8.840;2023-04-28T09:01:37;75526.72;;;-145.72;79.07
15914;BME280;8055;51.930;8.840;2023-04-28T09:04:03;75539.16;;;-145.72;76.99
15914;BME280;8055;51.930;8.840;2023-04-28T09:06:35;75535.00;;;-145.72;77.88
15914;BME280;8055;51.930;8.840;2023-04-28T09:09:21;75543.28;;;-145.72;78.48
15914;BME280;8055;51.930;8.840;2023-04-28T09:12:00;75543.28;;;-145.72;78.69
15914;BME280;8055;51.930;8.840;2023-04-28T09:14:27;75543.28;;;-145.72;80.43
15914;BME280;8055;51.930;8.840;2023-04-28T09:16:53;75532.94;;;-145.72;81.02
15914;BME280;8055;51.930;8.840;2023-04-28T09:19:18;75518.44;;;-145.72;80.61
15914;BME280;8055;51.930;8.840;2023-04-28T09:21:55;75514.31;;;-145.72;79.36
15914;BME280;8055;51.930;8.840;2023-04-28T09:24:30;75516.38;;;-145.72;81.19
15914;BME280;8055;51.930;8.840;2023-04-28T09:27:03;75512.25;;;-145.72;81.12
15914;BME280;8055;51.930;8.840;2023-04-28T09:29:32;75510.19;;;-145.72;82.22
15914;BME280;8055;51.930;8.840;2023-04-28T09:32:14;75503.97;;;-145.72;79.57
15914;BME280;8055;51.930;8.840;2023-04-28T09:34:44;75514.31;;;-145.72;79.78
15914;BME280;8055;51.930;8.840;2023-04-28T09:37:17;75510.19;;;-145.72;80.66
15914;BME280;8055;51.930;8.840;2023-04-28T09:39:45;75516.38;;;-145.72;81.09
15914;BME280;8055;51.930;8.840;2023-04-28T09:44:59;75514.31;;;-145.72;80.23
15914;BME280;8055;51.930;8.840;2023-04-28T09:47:24;75510.19;;;-145.72;82.65
15914;BME280;8055;51.930;8.840;2023-04-28T09:49:57;75510.19;;;-145.72;82.88
15914;BME280;8055;51.930;8.840;2023-04-28T09:52:24;75497.75;;;-145.72;82.71
15914;BME280;8055;51.930;8.840;2023-04-28T09:54:51;75495.69;;;-145.72;84.25
15914;BME280;8055;51.930;8.840;2023-04-28T09:57:17;75499.84;;;-145.72;84.10
15914;BME280;8055;51.930;8.840;2023-04-28T09:59:50;75495.69;;;-145.72;86.57
15914;BME280;8055;51.930;8.840;2023-04-28T10:02:16;75506.03;;;-145.72;89.54
15914;BME280;8055;51.930;8.840;2023-04-28T10:04:47;75503.97;;;-145.72;94.22
15914;BME280;8055;51.930;8.840;2023-04-28T10:07:14;75512.25;;;-145.72;100.00
15914;BME280;8055;51.930;8.840;2023-04-28T10:09:41;75518.44;;;-145.72;100.00
15914;BME280;8055;51.930;8.840;2023-04-28T10:12:11;75539.16;;;-145.72;100.00
15914;BME280;8055;51.930;8.840;2023-04-28T10:14:37;75543.28;;;-145.72;100.00
15914;BME280;8055;51.930;8.840;2023-04-28T10:17:03;75535.00;;;-145.72;100.00
15914;BME280;8055;51.930;8.840;2023-04-28T10:19:29;75535.00;;;-145.72;100.00
15914;BME280;8055;51.930;8.840;2023-04-28T10:27:41;75518.44;;;-145.72;100.00
15914;BME280;8055;51.930;8.840;2023-04-28T10:30:15;75516.38;;;-145.72;100.00
15914;BME280;8055;51.930;8.840;2023-04-28T10:32:41;75526.72;;;-145.72;100.00
15914;BME280;8055;51.930;8.840;2023-04-28T10:40:41;75516.38;;;-145.72;100.00
15914;BME280;8055;51.930;8.840;2023-04-28T10:43:12;75501.91;;;-145.72;100.00
15914;BME280;8055;51.930;8.840;2023-04-28T10:48:19;75462.59;;;-145.72;100.00
15914;BME280;8055;51.930;8.840;2023-04-28T10:56:09;75437.75;;;-145.72;100.00
15914;BME280;8055;51.930;8.840;2023-04-28T10:58:35;75427.41;;;-145.72;100.00
15914;BME280;8055;51.930;8.840;2023-04-28T11:03:48;75402.59;;;-145.72;100.00
15914;BME280;8055;51.930;8.840;2023-04-28T11:06:35;75386.03;;;-145.72;100.00
15914;BME280;8055;51.930;8.840;2023-04-28T11:16:50;75390.16;;;-145.72;100.00
15914;BME280;8055;51.930;8.840;2023-04-28T11:19:20;75375.69;;;-145.72;100.00
15914;BME280;8055;51.930;8.840;2023-04-28T11:21:47;75371.56;;;-145.72;100.00
15914;BME280;8055;51.930;8.840;2023-04-28T11:24:13;75357.06;;;-145.72;100.00
15914;BME280;8055;51.930;8.840;2023-04-28T11:26:39;75348.78;;;-145.72;100.00
15914;BME280;8055;51.930;8.840;2023-04-28T11:29:05;75350.88;;;-145.72;100.00
15914;BME280;8055;51.930;8.840;2023-04-28T11:31:30;75334.31;;;-145.72;100.00
15914;BME280;8055;51.930;8.840;2023-04-28T11:34:07;75334.31;;;-145.72;100.00
15914;BME280;8055;51.930;8.840;2023-04-28T11:36:37;75326.03;;;-145.72;100.00
15914;BME280;8055;51.930;8.840;2023-04-28T11:39:06;75313.63;;;-145.72;100.00
15914;BME280;8055;51.930;8.840;2023-04-28T11:41:53;75299.13;;;-145.72;100.00
15914;BME280;8055;51.930;8.840;2023-04-28T11:44:20;75270.16;;;-145.72;100.00
15914;BME280;8055;51.930;8.840;2023-04-28T11:46:52;75253.63;;;-145.72;100.00
15914;BME280;8055;51.930;8.840;2023-04-28T11:49:21;75224.66;;;-145.72;100.00
15914;BME280;8055;51.930;8.840;2023-04-28T11:51:49;75197.75;;;-145.72;100.00
15914;BME280;8055;51.930;8.840;2023-04-28T11:54:23;75185.34;;;-145.72;100.00
15914;BME280;8055;51.930;8.840;2023-04-28T11:56:49;75187.41;;;-145.72;100.00
15914;BME280;8055;51.930;8.840;2023-04-28T11:59:15;75191.56;;;-145.72;100.00
15914;BME280;8055;51.930;8.840;2023-04-28T12:04:11;75172.94;;;-145.72;100.00
15914;BME280;8055;51.930;8.840;2023-04-28T12:06:37;75156.38;;;-145.72;100.00
15914;BME280;8055;51.930;8.840;2023-04-28T12:09:17;75133.63;;;-145.72;100.00
15914;BME280;8055;51.930;8.840;2023-04-28T12:14:26;75146.03;;;-145.72;100.00
15914;BME280;8055;51.930;8.840;2023-04-28T12:16:51;75141.91;;;-145.72;100.00
15914;BME280;8055;51.930;8.840;2023-04-28T12:19:17;75148.09;;;-145.72;100.00
15914;BME280;8055;51.930;8.840;2023-04-28T12:22:04;75135.69;;;-145.72;100.00
15914;BME280;8055;51.930;8.840;2023-04-28T12:24:31;75141.91;;;-145.72;100.00
15914;BME280;8055;51.930;8.840;2023-04-28T12:27:19;75139.81;;;-145.72;100.00
15914;BME280;8055;51.930;8.840;2023-04-28T12:29:49;75117.06;;;-145.72;100.00
15914;BME280;8055;51.930;8.840;2023-04-28T12:32:16;75090.19;;;-145.72;100.00
15914;BME280;8055;51.930;8.840;2023-04-28T12:34:44;75081.91;;;-145.72;100.00
15914;BME280;8055;51.930;8.840;2023-04-28T12:37:10;75098.44;;;-145.72;96.34
15914;BME280;8055;51.930;8.840;2023-04-28T12:39:38;75075.69;;;-145.72;99.05
15914;BME280;8055;51.930;8.840;2023-04-28T12:42:05;75048.78;;;-145.72;95.91
15914;BME280;8055;51.930;8.840;2023-04-28T12:44:32;75028.09;;;-145.72;93.61
15914;BME280;8055;51.930;8.840;2023-04-28T12:47:01;74997.06;;;-145.72;90.73
15914;BME280;8055;51.930;8.840;2023-04-28T12:49:27;74959.84;;;-145.72;86.25
15914;BME280;8055;51.930;8.840;2023-04-28T12:51:52;74976.38;;;-145.72;88.37
15914;BME280;8055;51.930;8.840;2023-04-28T12:54:17;74988.81;;;-145.72;88.61
15914;BME280;8055;51.930;8.840;2023-04-28T12:56:43;74992.94;;;-145.72;89.85
15914;BME280;8055;51.930;8.840;2023-04-28T12:59:09;75005.34;;;-145.72;89.65
15914;BME280;8055;51.930;8.840;2023-04-28T13:01:35;75019.84;;;-145.72;91.30
15914;BME280;8055;51.930;8.840;2023-04-28T13:04:00;75011.56;;;-145.72;91.24
15914;BME280;8055;51.930;8.840;2023-04-28T13:06:26;75011.56;;;-145.72;89.72
15914;BME280;8055;51.930;8.840;2023-04-28T13:08:51;75017.75;;;-145.72;91.41
15914;BME280;8055;51.930;8.840;2023-04-28T13:11:17;75026.03;;;-145.72;90.68
15914;BME280;8055;51.930;8.840;2023-04-28T13:13:42;75030.19;;;-145.72;90.87
15914;BME280;8055;51.930;8.840;2023-04-28T13:16:09;75015.69;;;-145.72;90.02
15914;BME280;8055;51.930;8.840;2023-04-28T13:18:34;75015.69;;;-145.72;90.24
15914;BME280;8055;51.930;8.840;2023-04-28T13:21:00;75009.50;;;-145.72;89.75
15914;BME280;8055;51.930;8.840;2023-04-28T13:23:26;75013.63;;;-145.72;88.14
15914;BME280;8055;51.930;8.840;2023-04-28T13:25:51;75026.03;;;-145.72;88.83